sensor_id;sensor_type;location;lat;lon;timestamp;P1;durP1;ratioP1;P2;durP2;ratioP2
69244;SDS011;56357;52.304;4.870;2023-05-07T00:01:15;9.75;;;5.72;;
69244;SDS011;56357;52.304;4.870;2023-05-07T00:03:41;10.95;;;6.72;;
69244;SDS011;56357;52.304;4.870;2023-05-07T00:06:07;12.32;;;6.30;;
69244;SDS011;56357;52.304;4.870;2023-05-07T00:08:35;11.20;;;6.43;;
69244;SDS011;56357;52.304;4.870;2023-05-07T00:11:01;11.27;;;5.72;;
69244;SDS011;56357;52.304;4.870;2023-05-07T00:13:28;12.63;;;7.00;;
69244;SDS011;56357;52.304;4.870;2023-05-07T00:15:55;13.02;;;7.22;;
69244;SDS011;56357;52.304;4.870;2023-05-07T00:18:22;11.48;;;6.28;;
69244;SDS011;56357;52.304;4.870;2023-05-07T00:20:48;12.75;;;6.90;;
69244;SDS011;56357;52.304;4.870;2023-05-07T00:23:15;14.57;;;7.53;;
69244;SDS011;56357;52.304;4.870;2023-05-07T00:25:41;14.43;;;7.32;;
69244;SDS011;56357;52.304;4.870;2023-05-07T00:28:07;11.98;;;7.15;;
69244;SDS011;56357;52.304;4.870;2023-05-07T00:30:34;12.85;;;7.18;;
69244;SDS011;56357;52.304;4.870;2023-05-07T00:33:01;13.50;;;7.35;;
69244;SDS011;56357;52.304;4.870;2023-05-07T00:35:28;13.77;;;7.50;;
69244;SDS011;56357;52.304;4.870;2023-05-07T00:37:55;13.02;;;7.85;;
69244;SDS011;56357;52.304;4.870;2023-05-07T00:40:21;14.57;;;7.13;;
69244;SDS011;56357;52.304;4.870;2023-05-07T00:42:48;13.90;;;7.72;;
69244;SDS011;56357;52.304;4.870;2023-05-07T00:45:15;12.80;;;7.90;;
69244;SDS011;56357;52.304;4.870;2023-05-07T00:47:42;14.25;;;7.97;;
69244;SDS011;56357;52.304;4.870;2023-05-07T00:50:09;15.23;;;8.45;;
69244;SDS011;56357;52.304;4.870;2023-05-07T00:52:37;12.13;;;7.20;;
69244;SDS011;56357;52.304;4.870;2023-05-07T00:55:06;14.07;;;7.57;;
69244;SDS011;56357;52.304;4.870;2023-05-07T00:57:36;14.90;;;7.95;;
69244;SDS011;56357;52.304;4.870;2023-05-07T01:00:03;12.25;;;7.05;;
69244;SDS011;56357;52.304;4.870;2023-05-07T01:02:30;15.10;;;8.05;;
69244;SDS011;56357;52.304;4.870;2023-05-07T01:04:57;13.68;;;8.27;;
69244;SDS011;56357;52.304;4.870;2023-05-07T01:07:23;13.55;;;7.38;;
69244;SDS011;56357;52.304;4.870;2023-05-07T01:09:50;14.32;;;7.93;;
69244;SDS011;56357;52.304;4.870;2023-05-07T01:12:17;13.02;;;7.60;;
69244;SDS011;56357;52.304;4.870;2023-05-07T01:14:43;13.55;;;7.10;;
69244;SDS011;56357;52.304;4.870;2023-05-07T01:17:10;13.20;;;7.45;;
69244;SDS011;56357;52.304;4.870;2023-05-07T01:19:36;15.57;;;7.32;;
69244;SDS011;56357;52.304;4.870;2023-05-07T01:22:03;14.15;;;7.30;;
69244;SDS011;56357;52.304;4.870;2023-05-07T01:24:36;13.63;;;6.53;;
69244;SDS011;56357;52.304;4.870;2023-05-07T01:27:04;15.40;;;7.97;;
69244;SDS011;56357;52.304;4.870;2023-05-07T01:29:30;13.27;;;7.28;;
69244;SDS011;56357;52.304;4.870;2023-05-07T01:31:57;13.20;;;7.25;;
69244;SDS011;56357;52.304;4.870;2023-05-07T01:34:25;13.13;;;6.82;;
69244;SDS011;56357;52.304;4.870;2023-05-07T01:36:54;10.43;;;6.13;;
69244;SDS011;56357;52.304;4.870;2023-05-07T01:39:24;12.00;;;6.95;;
69244;SDS011;56357;52.304;4.870;2023-05-07T01:41:52;11.48;;;6.95;;
69244;SDS011;56357;52.304;4.870;2023-05-07T01:44:22;11.88;;;6.93;;
69244;SDS011;56357;52.304;4.870;2023-05-07T01:46:49;11.38;;;6.35;;
69244;SDS011;56357;52.304;4.870;2023-05-07T01:49:16;12.02;;;6.18;;
69244;SDS011;56357;52.304;4.870;2023-05-07T01:51:43;10.13;;;5.78;;
69244;SDS011;56357;52.304;4.870;2023-05-07T01:54:10;11.52;;;6.15;;
69244;SDS011;56357;52.304;4.870;2023-05-07T01:56:36;9.85;;;6.13;;
69244;SDS011;56357;52.304;4.870;2023-05-07T01:59:02;11.30;;;6.07;;
69244;SDS011;56357;52.304;4.870;2023-05-07T02:01:30;11.93;;;5.72;;
69244;SDS011;56357;52.304;4.870;2023-05-07T02:03:56;10.00;;;5.40;;
69244;SDS011;56357;52.304;4.870;2023-05-07T02:06:22;10.00;;;5.03;;
69244;SDS011;56357;52.304;4.870;2023-05-07T02:08:49;10.57;;;5.28;;
69244;SDS011;56357;52.304;4.870;2023-05-07T02:11:15;9.43;;;5.50;;
69244;SDS011;56357;52.304;4.870;2023-05-07T02:13:42;8.25;;;4.85;;
69244;SDS011;56357;52.304;4.870;2023-05-07T02:16:08;9.52;;;5.03;;
69244;SDS011;56357;52.304;4.870;2023-05-07T02:18:35;10.35;;;4.88;;
69244;SDS011;56357;52.304;4.870;2023-05-07T02:21:02;8.98;;;4.53;;
69244;SDS011;56357;52.304;4.870;2023-05-07T02:23:29;7.88;;;4.05;;
69244;SDS011;56357;52.304;4.870;2023-05-07T02:25:55;8.00;;;4.15;;
69244;SDS011;56357;52.304;4.870;2023-05-07T02:28:22;6.80;;;3.70;;
69244;SDS011;56357;52.304;4.870;2023-05-07T02:30:48;8.10;;;4.35;;
69244;SDS011;56357;52.304;4.870;2023-05-07T02:33:15;8.23;;;4.05;;
69244;SDS011;56357;52.304;4.870;2023-05-07T02:35:41;7.95;;;3.72;;
69244;SDS011;56357;52.304;4.870;2023-05-07T02:38:08;8.65;;;3.75;;
69244;SDS011;56357;52.304;4.870;2023-05-07T02:40:35;7.72;;;4.15;;
69244;SDS011;56357;52.304;4.870;2023-05-07T02:43:03;8.48;;;3.85;;
69244;SDS011;56357;52.304;4.870;2023-05-07T02:45:30;6.78;;;4.25;;
69244;SDS011;56357;52.304;4.870;2023-05-07T02:47:57;9.02;;;3.35;;
69244;SDS011;56357;52.304;4.870;2023-05-07T02:50:23;7.90;;;4.03;;
69244;SDS011;56357;52.304;4.870;2023-05-07T02:52:50;7.18;;;3.80;;
69244;SDS011;56357;52.304;4.870;2023-05-07T02:55:16;7.30;;;3.38;;
69244;SDS011;56357;52.304;4.870;2023-05-07T02:57:43;8.15;;;4.00;;
69244;SDS011;56357;52.304;4.870;2023-05-07T03:00:16;7.00;;;3.42;;
69244;SDS011;56357;52.304;4.870;2023-05-07T03:02:44;7.78;;;3.75;;
69244;SDS011;56357;52.304;4.870;2023-05-07T03:05:11;7.43;;;3.60;;
69244;SDS011;56357;52.304;4.870;2023-05-07T03:07:39;6.80;;;3.47;;
69244;SDS011;56357;52.304;4.870;2023-05-07T03:10:06;7.45;;;3.72;;
69244;SDS011;56357;52.304;4.870;2023-05-07T03:12:32;7.35;;;3.70;;
69244;SDS011;56357;52.304;4.870;2023-05-07T03:14:59;7.45;;;3.63;;
69244;SDS011;56357;52.304;4.870;2023-05-07T03:17:25;7.65;;;3.45;;
69244;SDS011;56357;52.304;4.870;2023-05-07T03:19:52;5.88;;;3.47;;
69244;SDS011;56357;52.304;4.870;2023-05-07T03:22:18;6.55;;;3.55;;
69244;SDS011;56357;52.304;4.870;2023-05-07T03:24:45;7.85;;;3.40;;
69244;SDS011;56357;52.304;4.870;2023-05-07T03:27:11;7.38;;;3.05;;
69244;SDS011;56357;52.304;4.870;2023-05-07T03:29:38;6.97;;;3.30;;
69244;SDS011;56357;52.304;4.870;2023-05-07T03:32:04;6.20;;;3.33;;
69244;SDS011;56357;52.304;4.870;2023-05-07T03:34:31;6.80;;;3.40;;
69244;SDS011;56357;52.304;4.870;2023-05-07T03:36:58;6.22;;;3.25;;
69244;SDS011;56357;52.304;4.870;2023-05-07T03:39:24;7.47;;;3.75;;
69244;SDS011;56357;52.304;4.870;2023-05-07T03:41:51;5.15;;;2.88;;
69244;SDS011;56357;52.304;4.870;2023-05-07T03:44:17;5.50;;;3.00;;
69244;SDS011;56357;52.304;4.870;2023-05-07T03:46:44;6.55;;;3.20;;
69244;SDS011;56357;52.304;4.870;2023-05-07T03:49:10;5.85;;;3.20;;
69244;SDS011;56357;52.304;4.870;2023-05-07T03:51:37;6.65;;;3.30;;
69244;SDS011;56357;52.304;4.870;2023-05-07T03:54:03;7.45;;;3.53;;
69244;SDS011;56357;52.304;4.870;2023-05-07T03:56:29;6.28;;;3.05;;
69244;SDS011;56357;52.304;4.870;2023-05-07T03:58:56;5.60;;;3.00;;
69244;SDS011;56357;52.304;4.870;2023-05-07T04:01:22;5.40;;;3.13;;
69244;SDS011;56357;52.304;4.870;2023-05-07T04:03:49;5.65;;;2.85;;
69244;SDS011;56357;52.304;4.870;2023-05-07T04:06:16;6.28;;;3.05;;
69244;SDS011;56357;52.304;4.870;2023-05-07T04:08:43;5.43;;;2.50;;
69244;SDS011;56357;52.304;4.870;2023-05-07T04:11:09;6.50;;;2.95;;
69244;SDS011;56357;52.304;4.870;2023-05-07T04:13:36;5.55;;;2.80;;
69244;SDS011;56357;52.304;4.870;2023-05-07T04:18:31;5.88;;;3.13;;
69244;SDS011;56357;52.304;4.870;2023-05-07T04:20:57;6.90;;;2.88;;
69244;SDS011;56357;52.304;4.870;2023-05-07T04:23:23;6.65;;;2.80;;
69244;SDS011;56357;52.304;4.870;2023-05-07T04:25:50;6.43;;;3.20;;
69244;SDS011;56357;52.304;4.870;2023-05-07T04:28:16;6.70;;;2.88;;
69244;SDS011;56357;52.304;4.870;2023-05-07T04:30:43;6.40;;;2.95;;
69244;SDS011;56357;52.304;4.870;2023-05-07T04:33:09;5.28;;;2.60;;
69244;SDS011;56357;52.304;4.870;2023-05-07T04:35:36;6.10;;;2.70;;
69244;SDS011;56357;52.304;4.870;2023-05-07T04:38:02;5.57;;;2.80;;
69244;SDS011;56357;52.304;4.870;2023-05-07T04:40:29;6.25;;;3.00;;
69244;SDS011;56357;52.304;4.870;2023-05-07T04:42:55;5.90;;;3.25;;
69244;SDS011;56357;52.304;4.870;2023-05-07T04:45:22;5.93;;;2.90;;
69244;SDS011;56357;52.304;4.870;2023-05-07T04:47:48;5.55;;;2.50;;
69244;SDS011;56357;52.304;4.870;2023-05-07T04:50:15;6.28;;;2.80;;
69244;SDS011;56357;52.304;4.870;2023-05-07T04:52:42;6.30;;;2.85;;
69244;SDS011;56357;52.304;4.870;2023-05-07T04:55:09;7.43;;;2.65;;
69244;SDS011;56357;52.304;4.870;2023-05-07T04:57:35;5.60;;;2.90;;
69244;SDS011;56357;52.304;4.870;2023-05-07T05:00:02;6.78;;;2.88;;
69244;SDS011;56357;52.304;4.870;2023-05-07T05:02:30;7.32;;;3.20;;
69244;SDS011;56357;52.304;4.870;2023-05-07T05:04:57;6.47;;;3.10;;
69244;SDS011;56357;52.304;4.870;2023-05-07T05:07:24;6.50;;;3.38;;
69244;SDS011;56357;52.304;4.870;2023-05-07T05:09:50;6.43;;;3.10;;
69244;SDS011;56357;52.304;4.870;2023-05-07T05:12:16;6.97;;;3.25;;
69244;SDS011;56357;52.304;4.870;2023-05-07T05:14:43;6.25;;;3.10;;
69244;SDS011;56357;52.304;4.870;2023-05-07T05:17:09;6.93;;;3.08;;
69244;SDS011;56357;52.304;4.870;2023-05-07T05:19:36;6.13;;;3.17;;
69244;SDS011;56357;52.304;4.870;2023-05-07T05:22:02;5.35;;;3.00;;
69244;SDS011;56357;52.304;4.870;2023-05-07T05:24:29;6.50;;;3.60;;
69244;SDS011;56357;52.304;4.870;2023-05-07T05:26:56;5.75;;;3.20;;
69244;SDS011;56357;52.304;4.870;2023-05-07T05:29:24;6.43;;;3.60;;
69244;SDS011;56357;52.304;4.870;2023-05-07T05:31:51;7.70;;;3.47;;
69244;SDS011;56357;52.304;4.870;2023-05-07T05:34:17;6.65;;;3.42;;
69244;SDS011;56357;52.304;4.870;2023-05-07T05:36:44;7.57;;;3.63;;
69244;SDS011;56357;52.304;4.870;2023-05-07T05:39:11;6.95;;;3.53;;
69244;SDS011;56357;52.304;4.870;2023-05-07T05:41:37;7.50;;;3.60;;
69244;SDS011;56357;52.304;4.870;2023-05-07T05:44:04;8.10;;;4.63;;
69244;SDS011;56357;52.304;4.870;2023-05-07T05:46:30;8.82;;;4.43;;
69244;SDS011;56357;52.304;4.870;2023-05-07T05:48:57;9.65;;;4.45;;
69244;SDS011;56357;52.304;4.870;2023-05-07T05:51:23;7.30;;;3.75;;
69244;SDS011;56357;52.304;4.870;2023-05-07T05:53:50;9.50;;;4.03;;
69244;SDS011;56357;52.304;4.870;2023-05-07T05:56:16;7.70;;;4.05;;
69244;SDS011;56357;52.304;4.870;2023-05-07T05:58:42;7.45;;;4.22;;
69244;SDS011;56357;52.304;4.870;2023-05-07T06:01:09;10.73;;;4.63;;
69244;SDS011;56357;52.304;4.870;2023-05-07T06:03:36;7.07;;;3.60;;
69244;SDS011;56357;52.304;4.870;2023-05-07T06:06:03;8.18;;;4.80;;
69244;SDS011;56357;52.304;4.870;2023-05-07T06:08:29;8.50;;;4.90;;
69244;SDS011;56357;52.304;4.870;2023-05-07T06:10:56;8.52;;;4.20;;
69244;SDS011;56357;52.304;4.870;2023-05-07T06:13:23;8.57;;;4.10;;
69244;SDS011;56357;52.304;4.870;2023-05-07T06:15:49;14.75;;;3.95;;
69244;SDS011;56357;52.304;4.870;2023-05-07T06:18:16;9.15;;;4.05;;
69244;SDS011;56357;52.304;4.870;2023-05-07T06:20:42;8.18;;;3.90;;
69244;SDS011;56357;52.304;4.870;2023-05-07T06:23:08;8.85;;;4.38;;
69244;SDS011;56357;52.304;4.870;2023-05-07T06:25:35;7.65;;;4.40;;
69244;SDS011;56357;52.304;4.870;2023-05-07T06:28:02;11.60;;;4.50;;
69244;SDS011;56357;52.304;4.870;2023-05-07T06:30:28;10.10;;;4.20;;
69244;SDS011;56357;52.304;4.870;2023-05-07T06:32:55;9.18;;;3.17;;
69244;SDS011;56357;52.304;4.870;2023-05-07T06:35:21;9.95;;;3.83;;
69244;SDS011;56357;52.304;4.870;2023-05-07T06:37:47;10.88;;;4.28;;
69244;SDS011;56357;52.304;4.870;2023-05-07T06:40:14;16.63;;;3.20;;
69244;SDS011;56357;52.304;4.870;2023-05-07T06:42:40;8.57;;;3.70;;
69244;SDS011;56357;52.304;4.870;2023-05-07T06:45:07;14.60;;;3.90;;
69244;SDS011;56357;52.304;4.870;2023-05-07T06:47:34;10.30;;;4.28;;
69244;SDS011;56357;52.304;4.870;2023-05-07T06:50:01;13.75;;;4.70;;
69244;SDS011;56357;52.304;4.870;2023-05-07T06:52:28;17.52;;;5.13;;
69244;SDS011;56357;52.304;4.870;2023-05-07T06:54:54;18.15;;;5.38;;
69244;SDS011;56357;52.304;4.870;2023-05-07T06:57:20;12.38;;;5.20;;
69244;SDS011;56357;52.304;4.870;2023-05-07T06:59:47;19.45;;;4.65;;
69244;SDS011;56357;52.304;4.870;2023-05-07T07:02:13;21.15;;;5.97;;
69244;SDS011;56357;52.304;4.870;2023-05-07T07:04:40;21.10;;;5.80;;
69244;SDS011;56357;52.304;4.870;2023-05-07T07:07:06;19.95;;;5.60;;
69244;SDS011;56357;52.304;4.870;2023-05-07T07:09:33;26.58;;;7.00;;
69244;SDS011;56357;52.304;4.870;2023-05-07T07:11:59;12.90;;;6.15;;
69244;SDS011;56357;52.304;4.870;2023-05-07T07:14:26;15.25;;;6.30;;
69244;SDS011;56357;52.304;4.870;2023-05-07T07:16:52;17.70;;;5.68;;
69244;SDS011;56357;52.304;4.870;2023-05-07T07:19:19;15.48;;;5.32;;
69244;SDS011;56357;52.304;4.870;2023-05-07T07:21:46;12.52;;;5.43;;
69244;SDS011;56357;52.304;4.870;2023-05-07T07:24:13;18.67;;;5.57;;
69244;SDS011;56357;52.304;4.870;2023-05-07T07:26:44;14.00;;;3.65;;
69244;SDS011;56357;52.304;4.870;2023-05-07T07:29:10;13.75;;;4.25;;
69244;SDS011;56357;52.304;4.870;2023-05-07T07:31:37;12.40;;;4.78;;
69244;SDS011;56357;52.304;4.870;2023-05-07T07:34:03;15.63;;;3.72;;
69244;SDS011;56357;52.304;4.870;2023-05-07T07:36:29;16.50;;;5.38;;
69244;SDS011;56357;52.304;4.870;2023-05-07T07:38:56;12.98;;;5.43;;
69244;SDS011;56357;52.304;4.870;2023-05-07T07:41:22;14.70;;;3.53;;
69244;SDS011;56357;52.304;4.870;2023-05-07T07:43:48;12.98;;;4.25;;
69244;SDS011;56357;52.304;4.870;2023-05-07T07:46:15;13.95;;;4.18;;
69244;SDS011;56357;52.304;4.870;2023-05-07T07:48:41;11.45;;;3.85;;
69244;SDS011;56357;52.304;4.870;2023-05-07T07:51:08;12.82;;;3.22;;
69244;SDS011;56357;52.304;4.870;2023-05-07T07:53:34;11.20;;;4.13;;
69244;SDS011;56357;52.304;4.870;2023-05-07T07:56:00;16.02;;;5.55;;
69244;SDS011;56357;52.304;4.870;2023-05-07T07:58:27;15.32;;;4.55;;
69244;SDS011;56357;52.304;4.870;2023-05-07T08:00:53;12.02;;;4.18;;
69244;SDS011;56357;52.304;4.870;2023-05-07T08:03:21;17.02;;;4.50;;
69244;SDS011;56357;52.304;4.870;2023-05-07T08:05:47;13.02;;;3.42;;
69244;SDS011;56357;52.304;4.870;2023-05-07T08:08:16;14.38;;;3.40;;
69244;SDS011;56357;52.304;4.870;2023-05-07T08:10:42;12.10;;;3.30;;
69244;SDS011;56357;52.304;4.870;2023-05-07T08:13:09;9.65;;;4.13;;
69244;SDS011;56357;52.304;4.870;2023-05-07T08:15:36;11.70;;;5.03;;
69244;SDS011;56357;52.304;4.870;2023-05-07T08:18:02;12.77;;;4.78;;
69244;SDS011;56357;52.304;4.870;2023-05-07T08:20:29;16.27;;;5.22;;
69244;SDS011;56357;52.304;4.870;2023-05-07T08:22:55;12.10;;;4.90;;
69244;SDS011;56357;52.304;4.870;2023-05-07T08:25:22;10.25;;;4.95;;
69244;SDS011;56357;52.304;4.870;2023-05-07T08:27:48;10.18;;;5.43;;
69244;SDS011;56357;52.304;4.870;2023-05-07T08:30:15;13.55;;;5.90;;
69244;SDS011;56357;52.304;4.870;2023-05-07T08:32:41;11.80;;;5.65;;
69244;SDS011;56357;52.304;4.870;2023-05-07T08:35:08;10.90;;;5.22;;
69244;SDS011;56357;52.304;4.870;2023-05-07T08:37:35;10.63;;;5.68;;
69244;SDS011;56357;52.304;4.870;2023-05-07T08:40:01;11.65;;;5.15;;
69244;SDS011;56357;52.304;4.870;2023-05-07T08:42:28;9.63;;;4.60;;
69244;SDS011;56357;52.304;4.870;2023-05-07T08:44:57;10.35;;;4.43;;
69244;SDS011;56357;52.304;4.870;2023-05-07T08:47:29;8.55;;;3.92;;
69244;SDS011;56357;52.304;4.870;2023-05-07T08:50:05;8.63;;;4.10;;
69244;SDS011;56357;52.304;4.870;2023-05-07T08:52:32;9.25;;;4.10;;
69244;SDS011;56357;52.304;4.870;2023-05-07T08:54:58;11.73;;;4.45;;
69244;SDS011;56357;52.304;4.870;2023-05-07T08:57:25;8.18;;;4.10;;
69244;SDS011;56357;52.304;4.870;2023-05-07T08:59:51;11.30;;;4.68;;
69244;SDS011;56357;52.304;4.870;2023-05-07T09:02:18;11.20;;;3.95;;
69244;SDS011;56357;52.304;4.870;2023-05-07T09:04:44;11.82;;;4.50;;
69244;SDS011;56357;52.304;4.870;2023-05-07T09:07:11;9.65;;;4.20;;
69244;SDS011;56357;52.304;4.870;2023-05-07T09:09:37;8.20;;;4.10;;
69244;SDS011;56357;52.304;4.870;2023-05-07T09:12:04;8.57;;;3.10;;
69244;SDS011;56357;52.304;4.870;2023-05-07T09:14:30;8.70;;;3.05;;
69244;SDS011;56357;52.304;4.870;2023-05-07T09:16:57;10.90;;;3.90;;
69244;SDS011;56357;52.304;4.870;2023-05-07T09:19:24;8.80;;;3.17;;
69244;SDS011;56357;52.304;4.870;2023-05-07T09:22:01;10.27;;;4.30;;
69244;SDS011;56357;52.304;4.870;2023-05-07T09:24:28;9.00;;;4.30;;
69244;SDS011;56357;52.304;4.870;2023-05-07T09:26:59;10.77;;;3.75;;
69244;SDS011;56357;52.304;4.870;2023-05-07T09:29:27;9.32;;;3.63;;
69244;SDS011;56357;52.304;4.870;2023-05-07T09:31:55;8.23;;;3.85;;
69244;SDS011;56357;52.304;4.870;2023-05-07T09:34:22;11.80;;;3.55;;
69244;SDS011;56357;52.304;4.870;2023-05-07T09:36:48;9.68;;;4.32;;
69244;SDS011;56357;52.304;4.870;2023-05-07T09:39:15;11.00;;;3.05;;
69244;SDS011;56357;52.304;4.870;2023-05-07T09:41:48;9.55;;;3.80;;
69244;SDS011;56357;52.304;4.870;2023-05-07T09:44:16;9.05;;;3.05;;
69244;SDS011;56357;52.304;4.870;2023-05-07T09:46:43;13.50;;;3.90;;
69244;SDS011;56357;52.304;4.870;2023-05-07T09:49:16;8.07;;;3.63;;
69244;SDS011;56357;52.304;4.870;2023-05-07T09:51:48;8.40;;;2.85;;
69244;SDS011;56357;52.304;4.870;2023-05-07T09:54:16;10.60;;;3.50;;
69244;SDS011;56357;52.304;4.870;2023-05-07T09:56:48;10.50;;;2.75;;
69244;SDS011;56357;52.304;4.870;2023-05-07T09:59:15;8.20;;;2.60;;
69244;SDS011;56357;52.304;4.870;2023-05-07T10:01:43;8.10;;;3.30;;
69244;SDS011;56357;52.304;4.870;2023-05-07T10:04:10;12.13;;;3.28;;
69244;SDS011;56357;52.304;4.870;2023-05-07T10:06:39;7.82;;;3.20;;
69244;SDS011;56357;52.304;4.870;2023-05-07T10:09:06;8.02;;;3.40;;
69244;SDS011;56357;52.304;4.870;2023-05-07T10:11:33;8.02;;;3.30;;
69244;SDS011;56357;52.304;4.870;2023-05-07T10:14:01;14.98;;;3.38;;
69244;SDS011;56357;52.304;4.870;2023-05-07T10:16:31;8.07;;;2.90;;
69244;SDS011;56357;52.304;4.870;2023-05-07T10:19:02;13.75;;;4.95;;
69244;SDS011;56357;52.304;4.870;2023-05-07T10:21:34;14.50;;;3.88;;
69244;SDS011;56357;52.304;4.870;2023-05-07T10:24:09;15.38;;;3.97;;
69244;SDS011;56357;52.304;4.870;2023-05-07T10:26:46;11.75;;;4.22;;
69244;SDS011;56357;52.304;4.870;2023-05-07T10:32:39;13.88;;;3.85;;
69244;SDS011;56357;52.304;4.870;2023-05-07T10:35:10;12.68;;;3.50;;
69244;SDS011;56357;52.304;4.870;2023-05-07T10:37:50;13.93;;;4.18;;
69244;SDS011;56357;52.304;4.870;2023-05-07T10:40:17;13.13;;;4.20;;
69244;SDS011;56357;52.304;4.870;2023-05-07T10:42:57;8.65;;;3.65;;
69244;SDS011;56357;52.304;4.870;2023-05-07T10:45:28;10.50;;;3.75;;
69244;SDS011;56357;52.304;4.870;2023-05-07T10:48:08;11.55;;;4.43;;
69244;SDS011;56357;52.304;4.870;2023-05-07T10:50:42;13.55;;;3.50;;
69244;SDS011;56357;52.304;4.870;2023-05-07T10:55:50;11.35;;;4.30;;
69244;SDS011;56357;52.304;4.870;2023-05-07T11:00:50;10.93;;;3.83;;
69244;SDS011;56357;52.304;4.870;2023-05-07T11:03:17;10.85;;;3.75;;
69244;SDS011;56357;52.304;4.870;2023-05-07T11:05:43;7.75;;;3.08;;
69244;SDS011;56357;52.304;4.870;2023-05-07T11:08:10;9.50;;;2.78;;
69244;SDS011;56357;52.304;4.870;2023-05-07T11:16:18;8.50;;;3.08;;
69244;SDS011;56357;52.304;4.870;2023-05-07T11:18:46;8.98;;;2.80;;
69244;SDS011;56357;52.304;4.870;2023-05-07T11:21:36;9.60;;;2.35;;
69244;SDS011;56357;52.304;4.870;2023-05-07T11:24:04;7.70;;;3.10;;
69244;SDS011;56357;52.304;4.870;2023-05-07T11:26:40;7.95;;;2.42;;
69244;SDS011;56357;52.304;4.870;2023-05-07T11:29:13;5.97;;;2.40;;
69244;SDS011;56357;52.304;4.870;2023-05-07T11:31:40;10.88;;;2.45;;
69244;SDS011;56357;52.304;4.870;2023-05-07T11:34:07;9.00;;;2.60;;
69244;SDS011;56357;52.304;4.870;2023-05-07T11:36:34;8.73;;;2.88;;
69244;SDS011;56357;52.304;4.870;2023-05-07T11:39:01;11.23;;;3.35;;
69244;SDS011;56357;52.304;4.870;2023-05-07T11:41:37;8.50;;;2.67;;
69244;SDS011;56357;52.304;4.870;2023-05-07T11:44:03;8.95;;;2.80;;
69244;SDS011;56357;52.304;4.870;2023-05-07T11:46:30;7.15;;;2.90;;
69244;SDS011;56357;52.304;4.870;2023-05-07T11:48:56;7.03;;;2.75;;
69244;SDS011;56357;52.304;4.870;2023-05-07T11:51:24;10.18;;;3.30;;
69244;SDS011;56357;52.304;4.870;2023-05-07T11:53:52;11.43;;;2.78;;
69244;SDS011;56357;52.304;4.870;2023-05-07T11:56:19;8.85;;;3.03;;
69244;SDS011;56357;52.304;4.870;2023-05-07T11:58:46;9.73;;;2.60;;
69244;SDS011;56357;52.304;4.870;2023-05-07T12:01:13;9.02;;;2.88;;
69244;SDS011;56357;52.304;4.870;2023-05-07T12:03:41;9.05;;;2.90;;
69244;SDS011;56357;52.304;4.870;2023-05-07T12:06:10;6.30;;;2.40;;
69244;SDS011;56357;52.304;4.870;2023-05-07T12:08:37;6.78;;;3.15;;
69244;SDS011;56357;52.304;4.870;2023-05-07T12:11:24;8.52;;;3.30;;
69244;SDS011;56357;52.304;4.870;2023-05-07T12:13:51;7.75;;;2.90;;
69244;SDS011;56357;52.304;4.870;2023-05-07T12:16:20;6.15;;;2.40;;
69244;SDS011;56357;52.304;4.870;2023-05-07T12:18:47;7.38;;;2.63;;
69244;SDS011;56357;52.304;4.870;2023-05-07T12:21:14;6.60;;;2.53;;
69244;SDS011;56357;52.304;4.870;2023-05-07T12:23:42;7.82;;;2.70;;
69244;SDS011;56357;52.304;4.870;2023-05-07T12:26:09;10.02;;;3.13;;
69244;SDS011;56357;52.304;4.870;2023-05-07T12:28:36;9.60;;;2.90;;
69244;SDS011;56357;52.304;4.870;2023-05-07T12:31:04;6.93;;;3.13;;
69244;SDS011;56357;52.304;4.870;2023-05-07T12:33:31;7.85;;;2.10;;
69244;SDS011;56357;52.304;4.870;2023-05-07T12:35:58;6.22;;;2.95;;
69244;SDS011;56357;52.304;4.870;2023-05-07T12:38:24;8.50;;;2.63;;
69244;SDS011;56357;52.304;4.870;2023-05-07T12:40:53;7.25;;;2.75;;
69244;SDS011;56357;52.304;4.870;2023-05-07T12:43:21;7.05;;;2.53;;
69244;SDS011;56357;52.304;4.870;2023-05-07T12:45:52;6.82;;;2.80;;
69244;SDS011;56357;52.304;4.870;2023-05-07T12:48:20;5.90;;;2.58;;
69244;SDS011;56357;52.304;4.870;2023-05-07T12:50:50;7.72;;;3.05;;
69244;SDS011;56357;52.304;4.870;2023-05-07T12:53:19;6.63;;;2.60;;
69244;SDS011;56357;52.304;4.870;2023-05-07T12:55:48;7.65;;;2.17;;
69244;SDS011;56357;52.304;4.870;2023-05-07T12:58:16;10.38;;;2.80;;
69244;SDS011;56357;52.304;4.870;2023-05-07T13:00:49;7.85;;;2.97;;
69244;SDS011;56357;52.304;4.870;2023-05-07T13:03:27;6.90;;;2.85;;
69244;SDS011;56357;52.304;4.870;2023-05-07T13:05:55;12.88;;;3.40;;
69244;SDS011;56357;52.304;4.870;2023-05-07T13:08:24;19.80;;;3.65;;
69244;SDS011;56357;52.304;4.870;2023-05-07T13:10:52;29.80;;;3.85;;
69244;SDS011;56357;52.304;4.870;2023-05-07T13:13:19;29.02;;;4.00;;
69244;SDS011;56357;52.304;4.870;2023-05-07T13:15:46;14.90;;;3.55;;
69244;SDS011;56357;52.304;4.870;2023-05-07T13:18:13;24.00;;;4.13;;
69244;SDS011;56357;52.304;4.870;2023-05-07T13:20:40;26.98;;;3.80;;
69244;SDS011;56357;52.304;4.870;2023-05-07T13:23:06;24.35;;;3.72;;
69244;SDS011;56357;52.304;4.870;2023-05-07T13:25:33;29.52;;;3.80;;
69244;SDS011;56357;52.304;4.870;2023-05-07T13:27:59;16.63;;;3.92;;
69244;SDS011;56357;52.304;4.870;2023-05-07T13:30:26;17.73;;;3.00;;
69244;SDS011;56357;52.304;4.870;2023-05-07T13:32:54;16.83;;;3.10;;
69244;SDS011;56357;52.304;4.870;2023-05-07T13:35:22;15.27;;;3.40;;
69244;SDS011;56357;52.304;4.870;2023-05-07T13:37:48;9.98;;;2.72;;
69244;SDS011;56357;52.304;4.870;2023-05-07T13:40:15;16.33;;;3.35;;
69244;SDS011;56357;52.304;4.870;2023-05-07T13:42:41;17.52;;;3.53;;
69244;SDS011;56357;52.304;4.870;2023-05-07T13:45:08;15.15;;;4.05;;
69244;SDS011;56357;52.304;4.870;2023-05-07T13:47:40;11.82;;;3.80;;
69244;SDS011;56357;52.304;4.870;2023-05-07T13:50:16;15.43;;;3.90;;
69244;SDS011;56357;52.304;4.870;2023-05-07T13:52:47;15.50;;;4.47;;
69244;SDS011;56357;52.304;4.870;2023-05-07T13:55:20;14.18;;;4.55;;
69244;SDS011;56357;52.304;4.870;2023-05-07T13:57:48;16.73;;;4.35;;
69244;SDS011;56357;52.304;4.870;2023-05-07T14:00:25;12.95;;;4.22;;
69244;SDS011;56357;52.304;4.870;2023-05-07T14:02:52;12.32;;;3.47;;
69244;SDS011;56357;52.304;4.870;2023-05-07T14:05:19;10.57;;;2.65;;
69244;SDS011;56357;52.304;4.870;2023-05-07T14:07:48;11.38;;;3.17;;
69244;SDS011;56357;52.304;4.870;2023-05-07T14:10:18;14.93;;;3.67;;
69244;SDS011;56357;52.304;4.870;2023-05-07T14:12:46;11.18;;;4.18;;
69244;SDS011;56357;52.304;4.870;2023-05-07T14:15:13;12.15;;;4.50;;
69244;SDS011;56357;52.304;4.870;2023-05-07T14:17:39;16.35;;;4.78;;
69244;SDS011;56357;52.304;4.870;2023-05-07T14:20:06;12.13;;;5.13;;
69244;SDS011;56357;52.304;4.870;2023-05-07T14:22:35;13.75;;;5.03;;
69244;SDS011;56357;52.304;4.870;2023-05-07T14:25:02;17.15;;;5.43;;
69244;SDS011;56357;52.304;4.870;2023-05-07T14:27:28;20.00;;;5.82;;
69244;SDS011;56357;52.304;4.870;2023-05-07T14:29:55;14.00;;;5.53;;
69244;SDS011;56357;52.304;4.870;2023-05-07T14:32:21;13.02;;;5.95;;
69244;SDS011;56357;52.304;4.870;2023-05-07T14:34:48;11.85;;;3.67;;
69244;SDS011;56357;52.304;4.870;2023-05-07T14:37:15;14.35;;;5.45;;
69244;SDS011;56357;52.304;4.870;2023-05-07T14:39:41;13.30;;;4.97;;
69244;SDS011;56357;52.304;4.870;2023-05-07T14:42:08;17.88;;;7.18;;
69244;SDS011;56357;52.304;4.870;2023-05-07T14:44:35;16.67;;;6.70;;
69244;SDS011;56357;52.304;4.870;2023-05-07T14:47:01;16.58;;;7.30;;
69244;SDS011;56357;52.304;4.870;2023-05-07T14:49:28;13.25;;;6.35;;
69244;SDS011;56357;52.304;4.870;2023-05-07T14:51:56;16.65;;;7.25;;
69244;SDS011;56357;52.304;4.870;2023-05-07T14:54:24;17.95;;;7.55;;
69244;SDS011;56357;52.304;4.870;2023-05-07T14:56:50;14.77;;;6.90;;
69244;SDS011;56357;52.304;4.870;2023-05-07T14:59:18;13.57;;;5.78;;